createdAt,value
2018-11-01T00:00:19.077Z,0
2018-11-01T00:01:29.098Z,0
2018-11-01T00:02:39.118Z,0
2018-11-01T00:03:48.863Z,0
2018-11-01T00:04:58.622Z,0
2018-11-01T00:06:08.104Z,0
2018-11-01T00:07:17.630Z,0
2018-11-01T00:08:27.120Z,0
2018-11-01T00:09:36.881Z,0
2018-11-01T00:10:46.650Z,0
2018-11-01T00:11:56.398Z,0
2018-11-01T00:13:06.422Z,0
2018-11-01T00:14:16.441Z,0
2018-11-01T00:15:25.917Z,0
2018-11-01T00:16:35.929Z,0
2018-11-01T00:17:45.943Z,0
2018-11-01T00:18:55.968Z,0
2018-11-01T00:20:05.716Z,0
2018-11-01T00:21:15.462Z,0
2018-11-01T00:22:25.213Z,0
2018-11-01T00:23:35.243Z,0
2018-11-01T00:24:44.732Z,0
2018-11-01T00:25:54.803Z,0
2018-11-01T00:27:04.824Z,0
2018-11-01T00:28:14.842Z,0
2018-11-01T00:29:24.858Z,0
2018-11-01T00:30:34.641Z,0
2018-11-01T00:31:44.397Z,0
2018-11-01T00:32:54.413Z,0
2018-11-01T00:34:04.429Z,0
2018-11-01T00:35:14.446Z,0
2018-11-01T00:36:24.467Z,0
2018-11-01T00:37:34.216Z,0
2018-11-01T00:38:43.975Z,0
2018-11-01T00:39:53.455Z,0
2018-11-01T00:41:02.944Z,0
2018-11-01T00:42:12.688Z,0
2018-11-01T00:43:22.707Z,0
2018-11-01T00:44:32.728Z,0
2018-11-01T00:45:42.210Z,0
2018-11-01T00:46:51.959Z,0
2018-11-01T00:48:01.994Z,0
2018-11-01T00:49:11.478Z,0
2018-11-01T00:50:20.988Z,0
2018-11-01T00:51:30.200Z,0
2018-11-01T00:52:40.222Z,0
2018-11-01T00:53:49.701Z,0
2018-11-01T00:54:59.181Z,0
2018-11-01T00:56:08.935Z,0
2018-11-01T00:57:18.960Z,0
2018-11-01T00:58:28.442Z,0
2018-11-01T00:59:38.461Z,0
2018-11-01T01:00:48.218Z,0
2018-11-01T01:01:57.968Z,0
2018-11-01T01:03:07.719Z,0
2018-11-01T01:04:17.473Z,0
2018-11-01T01:05:27.491Z,0
2018-11-01T01:06:36.977Z,0
2018-11-01T01:07:46.997Z,0
2018-11-01T01:08:56.747Z,0
2018-11-01T01:10:06.506Z,0
2018-11-01T01:11:16.259Z,0
2018-11-01T01:12:26.014Z,0
2018-11-01T01:13:35.492Z,0
2018-11-01T01:14:45.242Z,0
2018-11-01T01:15:54.989Z,0
2018-11-01T01:17:04.469Z,0
2018-11-01T01:18:14.533Z,0
2018-11-01T01:19:24.022Z,0
2018-11-01T01:20:34.044Z,0
2018-11-01T01:21:44.071Z,0
2018-11-01T01:22:54.090Z,0
2018-11-01T01:24:03.842Z,0
2018-11-01T01:25:13.869Z,0
2018-11-01T01:26:23.628Z,0
2018-11-01T01:27:33.690Z,0
2018-11-01T01:28:43.723Z,0
2018-11-01T01:29:53.740Z,0
2018-11-01T01:31:03.490Z,0
2018-11-01T01:32:12.704Z,0
2018-11-01T01:33:22.187Z,0
2018-11-01T01:34:32.561Z,0
2018-11-01T01:35:42.847Z,0
2018-11-01T01:36:52.866Z,0
2018-11-01T01:38:02.882Z,0
2018-11-01T01:39:12.362Z,0
2018-11-01T01:40:22.119Z,0
2018-11-01T01:41:32.137Z,0
2018-11-01T01:42:42.157Z,0
2018-11-01T01:43:51.908Z,0
2018-11-01T01:45:01.662Z,0
2018-11-01T01:46:11.680Z,0
2018-11-01T01:47:21.759Z,0
2018-11-01T01:48:31.778Z,0
2018-11-01T01:49:41.792Z,0
2018-11-01T01:50:51.984Z,0
2018-11-01T01:52:02.106Z,0
2018-11-01T01:53:11.858Z,0
2018-11-01T01:54:21.606Z,0
2018-11-01T01:55:31.354Z,0
2018-11-01T01:56:41.105Z,0
2018-11-01T01:57:50.857Z,0
2018-11-01T01:59:00.608Z,0
2018-11-01T02:00:10.363Z,0
2018-11-01T02:01:20.385Z,0
2018-11-01T02:02:30.397Z,0
2018-11-01T02:03:40.423Z,0
2018-11-01T02:04:50.440Z,0
2018-11-01T02:06:00.193Z,0
2018-11-01T02:07:10.213Z,0
2018-11-01T02:08:19.692Z,0
2018-11-01T02:09:29.443Z,0
2018-11-01T02:10:39.476Z,0
2018-11-01T02:11:50.043Z,0
2018-11-01T02:13:00.309Z,0
2018-11-01T02:14:09.788Z,0
2018-11-01T02:15:19.597Z,0
2018-11-01T02:16:29.626Z,0
2018-11-01T02:17:39.383Z,0
2018-11-01T02:18:48.865Z,0
2018-11-01T02:19:58.879Z,0
2018-11-01T02:21:08.628Z,0
2018-11-01T02:22:18.380Z,0
2018-11-01T02:23:28.134Z,0
2018-11-01T02:24:37.883Z,0
2018-11-01T02:25:47.904Z,0
2018-11-01T02:26:57.921Z,0
2018-11-01T02:28:07.666Z,0
2018-11-01T02:29:17.419Z,0
2018-11-01T02:30:27.175Z,0
2018-11-01T02:31:37.297Z,0
2018-11-01T02:32:46.797Z,0
2018-11-01T02:33:56.835Z,0
2018-11-01T02:35:06.593Z,0
2018-11-01T02:36:16.087Z,0
2018-11-01T02:37:26.119Z,0
2018-11-01T02:38:36.645Z,0
2018-11-01T02:39:46.507Z,0
2018-11-01T02:40:56.533Z,0
2018-11-01T02:42:06.285Z,0
2018-11-01T02:43:16.313Z,0
2018-11-01T02:44:26.071Z,0
2018-11-01T02:45:36.101Z,0
2018-11-01T02:46:45.855Z,0
2018-11-01T02:47:55.945Z,0
2018-11-01T02:49:05.695Z,0
2018-11-01T02:50:14.923Z,0
2018-11-01T02:51:25.004Z,0
2018-11-01T02:52:34.486Z,0
2018-11-01T02:53:44.502Z,0
2018-11-01T02:54:54.531Z,0
2018-11-01T02:56:04.557Z,0
2018-11-01T02:57:14.087Z,0
2018-11-01T02:58:23.839Z,0
2018-11-01T02:59:33.797Z,0
2018-11-01T03:00:43.993Z,0
2018-11-01T03:01:54.014Z,0
2018-11-01T03:03:03.546Z,0
2018-11-01T03:04:13.563Z,0
2018-11-01T03:05:23.332Z,0
2018-11-01T03:06:33.090Z,0
2018-11-01T03:07:42.861Z,0
2018-11-01T03:08:52.893Z,0
2018-11-01T03:10:02.917Z,0
2018-11-01T03:11:12.415Z,0
2018-11-01T03:12:22.435Z,0
2018-11-01T03:13:32.457Z,0
2018-11-01T03:14:42.481Z,0
2018-11-01T03:15:52.508Z,0
2018-11-01T03:17:02.756Z,0
2018-11-01T03:18:12.678Z,0
2018-11-01T03:19:22.700Z,0
2018-11-01T03:20:32.502Z,0
2018-11-01T03:21:42.774Z,0
2018-11-01T03:22:52.891Z,0
2018-11-01T03:24:02.920Z,0
2018-11-01T03:25:12.677Z,0
2018-11-01T03:26:22.588Z,0
2018-11-01T03:27:32.515Z,0
2018-11-01T03:28:42.261Z,0
2018-11-01T03:29:52.277Z,0
2018-11-01T03:31:02.306Z,0
2018-11-01T03:32:12.097Z,0
2018-11-01T03:33:21.858Z,0
2018-11-01T03:34:31.621Z,0
2018-11-01T03:35:40.969Z,0
2018-11-01T03:36:50.498Z,0
2018-11-01T03:38:00.297Z,0
2018-11-01T03:39:10.345Z,0
2018-11-01T03:40:20.381Z,0
2018-11-01T03:41:30.397Z,0
2018-11-01T03:42:39.902Z,0
2018-11-01T03:43:49.942Z,0
2018-11-01T03:44:59.688Z,0
2018-11-01T03:46:09.176Z,0
2018-11-01T03:47:18.942Z,0
2018-11-01T03:48:28.966Z,0
2018-11-01T03:49:38.712Z,0
2018-11-01T03:50:48.459Z,0
2018-11-01T03:51:59.178Z,0
2018-11-01T03:53:08.710Z,0
2018-11-01T03:54:18.627Z,0
2018-11-01T03:55:28.739Z,0
2018-11-01T03:56:37.693Z,0
2018-11-01T03:57:47.455Z,0
2018-11-01T03:58:57.209Z,0
2018-11-01T04:00:06.691Z,0
2018-11-01T04:01:16.724Z,0
2018-11-01T04:02:26.496Z,0
2018-11-01T04:03:36.722Z,0
2018-11-01T04:04:46.866Z,0
2018-11-01T04:05:56.894Z,0
2018-11-01T04:07:06.918Z,0
2018-11-01T04:08:16.675Z,0
2018-11-01T04:09:25.894Z,0
2018-11-01T04:10:35.932Z,0
2018-11-01T04:11:45.694Z,0
2018-11-01T04:12:55.462Z,0
2018-11-01T04:14:05.495Z,0
2018-11-01T04:15:16.071Z,0
2018-11-01T04:16:26.101Z,0
2018-11-01T04:17:35.581Z,0
2018-11-01T04:18:45.609Z,0
2018-11-01T04:19:55.091Z,0
2018-11-01T04:21:04.847Z,0
2018-11-01T04:22:14.874Z,0
2018-11-01T04:23:25.085Z,0
2018-11-01T04:24:35.237Z,0
2018-11-01T04:25:45.492Z,0
2018-11-01T04:26:55.259Z,0
2018-11-01T04:28:05.014Z,0
2018-11-01T04:29:15.040Z,0
2018-11-01T04:30:25.070Z,0
2018-11-01T04:31:35.101Z,0
2018-11-01T04:32:44.856Z,0
2018-11-01T04:33:55.476Z,0
2018-11-01T04:35:05.227Z,0
2018-11-01T04:36:15.077Z,0
2018-11-01T04:37:24.842Z,0
2018-11-01T04:38:34.607Z,0
2018-11-01T04:39:44.626Z,0
2018-11-01T04:40:54.832Z,0
2018-11-01T04:42:04.884Z,0
2018-11-01T04:43:14.966Z,0
2018-11-01T04:44:25.346Z,0
2018-11-01T04:45:35.182Z,0
2018-11-01T04:46:44.677Z,0
2018-11-01T04:47:55.071Z,0
2018-11-01T04:49:04.917Z,0
2018-11-01T04:50:14.669Z,0
2018-11-01T04:51:24.684Z,0
2018-11-01T04:52:34.167Z,0
2018-11-01T04:53:44.181Z,0
2018-11-01T04:54:53.669Z,0
2018-11-01T04:56:03.416Z,0
2018-11-01T04:57:12.896Z,0
2018-11-01T04:58:22.653Z,0
2018-11-01T04:59:32.413Z,0
2018-11-01T05:00:42.434Z,0
2018-11-01T05:01:52.190Z,0
2018-11-01T05:03:02.205Z,0
2018-11-01T05:04:11.689Z,0
2018-11-01T05:05:21.919Z,0
2018-11-01T05:06:31.944Z,0
2018-11-01T05:07:42.079Z,0
2018-11-01T05:08:52.104Z,0
2018-11-01T05:10:01.849Z,0
2018-11-01T05:11:11.340Z,0
2018-11-01T05:12:21.115Z,0
2018-11-01T05:13:30.864Z,0
2018-11-01T05:14:40.617Z,0
2018-11-01T05:15:50.383Z,0
2018-11-01T05:17:00.408Z,0
2018-11-01T05:18:10.425Z,0
2018-11-01T05:19:20.181Z,0
2018-11-01T05:20:30.495Z,0
2018-11-01T05:21:40.514Z,0
2018-11-01T05:22:50.265Z,0
2018-11-01T05:24:00.023Z,0
2018-11-01T05:25:10.048Z,0
2018-11-01T05:26:20.088Z,0
2018-11-01T05:27:29.854Z,0
2018-11-01T05:28:39.610Z,0
2018-11-01T05:29:49.420Z,0
2018-11-01T05:30:59.247Z,0
2018-11-01T05:32:09.335Z,0
2018-11-01T05:33:19.173Z,0
2018-11-01T05:34:29.087Z,0
2018-11-01T05:35:38.924Z,0
2018-11-01T05:36:48.518Z,0
2018-11-01T05:37:58.778Z,0
2018-11-01T05:39:08.089Z,0
2018-11-01T05:40:18.210Z,0
2018-11-01T05:41:28.057Z,0
2018-11-01T05:42:37.905Z,0
2018-11-01T05:43:47.772Z,0
2018-11-01T05:44:57.621Z,0
2018-11-01T05:46:07.813Z,0
2018-11-01T05:47:17.935Z,0
2018-11-01T05:48:27.513Z,0
2018-11-01T05:49:37.633Z,0
2018-11-01T05:50:47.488Z,0
2018-11-01T05:51:57.639Z,0
2018-11-01T05:53:07.223Z,0
2018-11-01T05:54:17.343Z,0
2018-11-01T05:55:27.468Z,0
2018-11-01T05:56:37.585Z,0
2018-11-01T05:57:47.431Z,0
2018-11-01T05:58:57.002Z,0
2018-11-01T06:00:07.278Z,0
2018-11-01T06:01:17.154Z,0
2018-11-01T06:02:26.997Z,0
2018-11-01T06:03:37.126Z,0
2018-11-01T06:04:47.247Z,0
2018-11-01T06:05:57.372Z,4
2018-11-01T06:07:07.225Z,4
2018-11-01T06:08:16.797Z,0
2018-11-01T06:09:26.928Z,4
2018-11-01T06:10:37.057Z,4
2018-11-01T06:11:46.912Z,4
2018-11-01T06:12:57.030Z,4
2018-11-01T06:14:07.153Z,8
2018-11-01T06:15:17.282Z,4
2018-11-01T06:16:27.132Z,4
2018-11-01T06:17:36.981Z,4
2018-11-01T06:18:47.099Z,8
2018-11-01T06:19:57.216Z,12
2018-11-01T06:21:07.106Z,16
2018-11-01T06:22:16.957Z,12
2018-11-01T06:23:26.252Z,12
2018-11-01T06:24:36.376Z,12
2018-11-01T06:25:46.500Z,12
2018-11-01T06:26:56.347Z,16
2018-11-01T06:28:05.397Z,20
2018-11-01T06:29:14.940Z,24
2018-11-01T06:30:25.359Z,32
2018-11-01T06:31:35.329Z,36
2018-11-01T06:32:45.178Z,40
2018-11-01T06:33:55.314Z,40
2018-11-01T06:35:05.158Z,44
2018-11-01T06:36:15.009Z,48
2018-11-01T06:37:24.581Z,56
2018-11-01T06:38:34.426Z,56
2018-11-01T06:40:10.232Z,64
2018-11-01T06:41:19.988Z,72
2018-11-01T06:42:29.822Z,80
2018-11-01T06:43:40.058Z,80
2018-11-01T06:44:50.065Z,80
2018-11-01T06:45:59.998Z,72
2018-11-01T06:47:10.121Z,80
2018-11-01T06:48:19.968Z,84
2018-11-01T06:49:29.849Z,88
2018-11-01T06:50:39.702Z,88
2018-11-01T06:51:49.553Z,88
2018-11-01T06:52:59.393Z,88
2018-11-01T06:54:08.969Z,88
2018-11-01T06:55:18.812Z,100
2018-11-01T06:56:28.664Z,120
2018-11-01T06:57:38.233Z,144
2018-11-01T06:58:48.027Z,172
2018-11-01T06:59:58.330Z,184
2018-11-01T07:01:08.201Z,220
2018-11-01T07:02:18.323Z,244
2018-11-01T07:03:28.177Z,268
2018-11-01T07:04:38.020Z,276
2018-11-01T07:05:48.420Z,252
2018-11-01T07:06:58.500Z,264
2018-11-01T07:08:08.625Z,256
2018-11-01T07:09:18.467Z,240
2018-11-01T07:10:28.588Z,220
2018-11-01T07:11:39.457Z,216
2018-11-01T07:12:49.341Z,216
2018-11-01T07:13:59.197Z,220
2018-11-01T07:15:09.049Z,228
2018-11-01T07:16:19.181Z,224
2018-11-01T07:17:30.058Z,208
2018-11-01T07:18:40.109Z,188
2018-11-01T07:19:49.679Z,184
2018-11-01T07:20:59.798Z,188
2018-11-01T07:22:09.654Z,208
2018-11-01T07:23:19.526Z,240
2018-11-01T07:24:29.099Z,264
2018-11-01T07:25:40.040Z,284
2018-11-01T07:26:49.945Z,312
2018-11-01T07:27:59.795Z,336
2018-11-01T07:29:09.638Z,380
2018-11-01T07:30:19.501Z,404
2018-11-01T07:31:29.620Z,420
2018-11-01T07:32:40.132Z,448
2018-11-01T07:33:50.343Z,492
2018-11-01T07:35:00.193Z,512
2018-11-01T07:36:10.094Z,540
2018-11-01T07:37:19.940Z,544
2018-11-01T07:38:30.064Z,576
2018-11-01T07:39:39.937Z,604
2018-11-01T07:40:50.113Z,620
2018-11-01T07:42:00.237Z,644
2018-11-01T07:43:10.374Z,660
2018-11-01T07:44:20.495Z,676
2018-11-01T07:45:30.347Z,692
2018-11-01T07:46:40.467Z,708
2018-11-01T07:47:50.648Z,704
2018-11-01T07:49:00.504Z,768
2018-11-01T07:50:10.075Z,844
2018-11-01T07:51:19.643Z,876
2018-11-01T07:52:29.499Z,900
2018-11-01T07:53:39.410Z,928
2018-11-01T07:54:49.256Z,924
2018-11-01T07:55:59.389Z,912
2018-11-01T07:57:08.956Z,920
2018-11-01T07:58:18.552Z,860
2018-11-01T07:59:28.644Z,868
2018-11-01T08:00:38.221Z,876
2018-11-01T08:01:48.343Z,920
2018-11-01T08:02:58.472Z,884
2018-11-01T08:04:08.042Z,932
2018-11-01T08:05:18.208Z,1052
2018-11-01T08:06:28.063Z,1096
2018-11-01T08:07:38.196Z,1060
2018-11-01T08:08:48.324Z,1036
2018-11-01T08:09:58.444Z,1180
2018-11-01T08:11:08.067Z,1308
2018-11-01T08:12:17.913Z,1360
2018-11-01T08:13:27.762Z,1420
2018-11-01T08:14:37.904Z,1520
2018-11-01T08:15:47.482Z,1624
2018-11-01T08:16:57.664Z,1620
2018-11-01T08:18:07.526Z,1776
2018-11-01T08:19:17.652Z,1820
2018-11-01T08:20:27.734Z,1824
2018-11-01T08:21:37.704Z,1848
2018-11-01T08:22:47.903Z,1888
2018-11-01T08:23:57.476Z,2036
2018-11-01T08:25:07.043Z,2148
2018-11-01T08:26:16.614Z,2296
2018-11-01T08:27:26.461Z,2300
2018-11-01T08:28:36.354Z,2320
2018-11-01T08:29:46.249Z,2356
2018-11-01T08:30:56.097Z,2340
2018-11-01T08:32:05.950Z,2500
2018-11-01T08:33:16.078Z,2644
2018-11-01T08:34:25.703Z,2804
2018-11-01T08:35:35.549Z,2932
2018-11-01T08:36:45.121Z,3088
2018-11-01T08:37:55.236Z,3024
2018-11-01T08:39:05.369Z,2880
2018-11-01T08:40:15.022Z,2952
2018-11-01T08:41:25.151Z,3020
2018-11-01T08:42:35.288Z,3112
2018-11-01T08:43:45.136Z,3156
2018-11-01T08:44:54.712Z,3020
2018-11-01T08:46:04.381Z,3080
2018-11-01T08:47:14.235Z,3416
2018-11-01T08:48:24.354Z,3244
2018-11-01T08:49:35.155Z,3252
2018-11-01T08:50:45.321Z,3644
2018-11-01T08:51:55.273Z,3812
2018-11-01T08:53:05.130Z,3664
2018-11-01T08:54:14.428Z,4064
2018-11-01T08:55:24.281Z,4024
2018-11-01T08:56:34.404Z,3820
2018-11-01T08:57:44.304Z,3876
2018-11-01T08:58:54.156Z,3740
2018-11-01T09:00:03.731Z,3504
2018-11-01T09:01:13.031Z,3636
2018-11-01T09:02:23.154Z,3488
2018-11-01T09:03:33.066Z,3256
2018-11-01T09:04:42.646Z,2904
2018-11-01T09:05:52.219Z,2788
2018-11-01T09:07:01.793Z,2632
2018-11-01T09:08:12.556Z,2568
2018-11-01T09:09:22.816Z,2608
2018-11-01T09:10:33.160Z,2800
2018-11-01T09:11:43.322Z,3060
2018-11-01T09:12:53.337Z,3192
2018-11-01T09:14:03.455Z,3448
2018-11-01T09:15:13.371Z,3744
2018-11-01T09:16:22.953Z,3764
2018-11-01T09:17:33.071Z,3668
2018-11-01T09:18:42.777Z,3812
2018-11-01T09:19:52.625Z,3840
2018-11-01T09:21:02.473Z,3692
2018-11-01T09:22:11.497Z,3416
2018-11-01T09:23:21.626Z,3360
2018-11-01T09:24:31.479Z,3368
2018-11-01T09:25:41.050Z,3308
2018-11-01T09:26:51.557Z,3092
2018-11-01T09:28:01.942Z,2872
2018-11-01T09:29:12.072Z,2716
2018-11-01T09:30:21.374Z,2648
2018-11-01T09:31:30.953Z,2604
2018-11-01T09:32:40.916Z,2712
2018-11-01T09:33:51.093Z,2712
2018-11-01T09:35:01.220Z,2596
2018-11-01T09:36:10.797Z,2364
2018-11-01T09:37:20.915Z,2216
2018-11-01T09:38:30.868Z,2148
2018-11-01T09:39:41.011Z,2168
2018-11-01T09:40:51.137Z,2244
2018-11-01T09:42:00.988Z,2328
2018-11-01T09:43:11.121Z,2336
2018-11-01T09:44:21.292Z,2280
2018-11-01T09:45:31.151Z,2440
2018-11-01T09:46:42.247Z,2568
2018-11-01T09:47:53.839Z,2708
2018-11-01T09:49:03.735Z,2712
2018-11-01T09:50:13.631Z,2744
2018-11-01T09:51:22.937Z,2932
2018-11-01T09:52:33.062Z,3172
2018-11-01T09:53:43.184Z,3280
2018-11-01T09:54:53.310Z,3288
2018-11-01T09:56:04.085Z,3448
2018-11-01T09:57:14.537Z,3608
2018-11-01T09:58:24.656Z,3748
2018-11-01T09:59:34.504Z,3780
2018-11-01T10:00:44.645Z,3836
2018-11-01T10:01:54.828Z,3976
2018-11-01T10:03:04.678Z,4156
2018-11-01T10:04:14.534Z,4500
2018-11-01T10:05:24.384Z,5104
2018-11-01T10:06:34.517Z,5580
2018-11-01T10:07:44.703Z,5968
2018-11-01T10:08:54.560Z,6120
2018-11-01T10:10:03.863Z,5864
2018-11-01T10:11:13.716Z,5740
2018-11-01T10:12:23.842Z,5908
2018-11-01T10:13:33.197Z,5896
2018-11-01T10:14:42.771Z,5788
2018-11-01T10:15:53.563Z,5872
2018-11-01T10:17:05.367Z,5816
2018-11-01T10:18:17.190Z,6048
2018-11-01T10:19:28.092Z,6388
2018-11-01T10:20:38.215Z,6780
2018-11-01T10:21:48.373Z,6956
2018-11-01T10:22:59.134Z,6856
2018-11-01T10:24:09.533Z,7080
2018-11-01T10:25:19.797Z,8344
2018-11-01T10:26:30.050Z,10140
2018-11-01T10:27:40.625Z,9996
2018-11-01T10:28:50.888Z,9512
2018-11-01T10:30:01.008Z,8780
2018-11-01T10:31:10.599Z,8904
2018-11-01T10:32:20.722Z,8092
2018-11-01T10:33:30.581Z,7612
2018-11-01T10:34:40.699Z,7348
2018-11-01T10:35:50.279Z,8924
2018-11-01T10:37:00.455Z,10408
2018-11-01T10:38:10.588Z,10004
2018-11-01T10:39:20.442Z,10268
2018-11-01T10:40:30.296Z,8848
2018-11-01T10:41:40.214Z,8244
2018-11-01T10:42:50.347Z,7348
2018-11-01T10:44:00.193Z,6300
2018-11-01T10:45:09.787Z,5668
2018-11-01T10:46:19.912Z,5204
2018-11-01T10:47:29.847Z,5168
2018-11-01T10:48:39.609Z,5300
2018-11-01T10:49:49.744Z,4844
2018-11-01T10:50:59.591Z,4000
2018-11-01T10:52:09.730Z,3872
2018-11-01T10:53:19.637Z,3564
2018-11-01T10:54:30.021Z,3920
2018-11-01T10:55:39.984Z,4708
2018-11-01T10:56:49.580Z,5428
2018-11-01T10:57:59.707Z,5324
2018-11-01T10:59:09.563Z,5460
2018-11-01T11:00:20.552Z,5600
2018-11-01T11:01:30.518Z,5392
2018-11-01T11:02:40.090Z,5948
2018-11-01T11:03:49.941Z,5872
2018-11-01T11:05:00.116Z,5800
2018-11-01T11:06:10.017Z,5432
2018-11-01T11:07:19.868Z,5440
2018-11-01T11:08:29.719Z,5772
2018-11-01T11:09:39.575Z,6124
2018-11-01T11:10:49.151Z,5540
2018-11-01T11:11:59.325Z,5744
2018-11-01T11:13:08.900Z,5656
2018-11-01T11:14:18.836Z,6252
2018-11-01T11:15:28.820Z,5596
2018-11-01T11:16:38.947Z,5296
2018-11-01T11:17:49.068Z,5436
2018-11-01T11:18:59.198Z,5584
2018-11-01T11:20:09.684Z,5280
2018-11-01T11:21:21.615Z,4892
2018-11-01T11:22:31.746Z,4752
2018-11-01T11:23:41.923Z,4352
2018-11-01T11:24:51.774Z,4688
2018-11-01T11:26:01.900Z,4552
2018-11-01T11:27:12.028Z,4512
2018-11-01T11:28:21.880Z,4832
2018-11-01T11:29:32.100Z,4964
2018-11-01T11:30:42.861Z,5028
2018-11-01T11:31:52.838Z,4732
2018-11-01T11:33:03.022Z,4796
2018-11-01T11:34:13.149Z,4640
2018-11-01T11:35:23.624Z,4600
2018-11-01T11:36:33.546Z,5228
2018-11-01T11:37:43.671Z,5028
2018-11-01T11:38:53.889Z,4692
2018-11-01T11:40:03.417Z,5296
2018-11-01T11:41:12.775Z,5812
2018-11-01T11:42:22.628Z,5924
2018-11-01T11:43:32.208Z,6504
2018-11-01T11:44:41.778Z,6660
2018-11-01T11:45:51.900Z,6548
2018-11-01T11:47:01.801Z,6740
2018-11-01T11:48:11.936Z,6328
2018-11-01T11:49:21.787Z,6208
2018-11-01T11:50:31.638Z,6072
2018-11-01T11:51:41.913Z,6072
2018-11-01T11:52:52.100Z,6508
2018-11-01T11:54:01.947Z,6824
2018-11-01T11:55:11.519Z,6952
2018-11-01T11:56:21.368Z,7068
2018-11-01T11:57:31.216Z,7024
2018-11-01T11:58:41.388Z,6444
2018-11-01T11:59:51.515Z,5620
2018-11-01T12:01:01.654Z,5552
2018-11-01T12:02:11.032Z,5544
2018-11-01T12:03:21.179Z,5380
2018-11-01T12:04:31.083Z,5164
2018-11-01T12:05:42.351Z,5356
2018-11-01T12:06:52.273Z,5456
2018-11-01T12:08:02.396Z,5580
2018-11-01T12:09:11.689Z,5752
2018-11-01T12:10:21.874Z,5880
2018-11-01T12:11:31.719Z,5724
2018-11-01T12:12:41.840Z,5392
2018-11-01T12:13:51.685Z,5780
2018-11-01T12:15:01.274Z,6056
2018-11-01T12:16:11.401Z,6148
2018-11-01T12:17:21.257Z,6280
2018-11-01T12:18:31.121Z,6160
2018-11-01T12:19:40.972Z,6072
2018-11-01T12:20:51.097Z,5844
2018-11-01T12:22:00.999Z,5696
2018-11-01T12:23:11.136Z,5632
2018-11-01T12:24:20.987Z,5264
2018-11-01T12:25:30.837Z,4944
2018-11-01T12:26:40.689Z,4672
2018-11-01T12:27:50.310Z,4028
2018-11-01T12:29:00.542Z,3428
2018-11-01T12:30:10.206Z,3184
2018-11-01T12:31:20.341Z,3188
2018-11-01T12:32:30.467Z,2960
2018-11-01T12:33:40.364Z,2492
2018-11-01T12:34:49.934Z,2484
2018-11-01T12:36:00.438Z,2600
2018-11-01T12:37:10.757Z,2604
2018-11-01T12:38:20.332Z,2580
2018-11-01T12:39:30.507Z,2712
2018-11-01T12:40:40.082Z,2600
2018-11-01T12:41:49.782Z,2468
2018-11-01T12:42:59.930Z,2496
2018-11-01T12:44:10.082Z,2512
2018-11-01T12:45:19.981Z,2428
2018-11-01T12:46:30.111Z,2440
2018-11-01T12:47:39.408Z,2428
2018-11-01T12:48:49.542Z,2352
2018-11-01T12:50:00.629Z,2468
2018-11-01T12:51:10.579Z,2572
2018-11-01T12:52:20.431Z,2836
2018-11-01T12:53:30.552Z,2716
2018-11-01T12:54:40.682Z,2592
2018-11-01T12:55:50.532Z,2596
2018-11-01T12:57:00.497Z,2588
2018-11-01T12:58:09.809Z,2520
2018-11-01T12:59:19.660Z,2672
2018-11-01T13:00:29.517Z,2588
2018-11-01T13:01:39.708Z,1940
2018-11-01T13:02:50.234Z,1552
2018-11-01T13:03:59.816Z,1408
2018-11-01T13:05:09.117Z,1248
2018-11-01T13:06:19.244Z,1264
2018-11-01T13:07:28.815Z,1308
2018-11-01T13:08:39.046Z,1356
2018-11-01T13:09:49.171Z,1300
2018-11-01T13:10:58.889Z,1312
2018-11-01T13:12:08.739Z,1356
2018-11-01T13:13:18.592Z,1272
2018-11-01T13:14:28.496Z,1284
2018-11-01T13:15:38.628Z,1224
2018-11-01T13:16:48.471Z,1224
2018-11-01T13:17:58.515Z,1132
2018-11-01T13:19:08.550Z,1132
2018-11-01T13:20:18.448Z,1228
2018-11-01T13:21:28.291Z,1216
2018-11-01T13:22:37.873Z,1204
2018-11-01T13:23:47.722Z,1204
2018-11-01T13:24:57.573Z,1084
2018-11-01T13:26:07.474Z,1020
2018-11-01T13:27:17.322Z,1100
2018-11-01T13:28:27.447Z,1236
2018-11-01T13:29:37.018Z,1288
2018-11-01T13:30:47.148Z,1080
2018-11-01T13:31:59.001Z,996
2018-11-01T13:33:08.852Z,1124
2018-11-01T13:34:18.702Z,1052
2018-11-01T13:35:29.483Z,884
2018-11-01T13:36:39.888Z,784
2018-11-01T13:37:50.071Z,792
2018-11-01T13:39:00.195Z,816
2018-11-01T13:40:12.078Z,768
2018-11-01T13:41:23.802Z,800
2018-11-01T13:42:33.976Z,908
2018-11-01T13:43:43.602Z,1028
2018-11-01T13:44:53.728Z,1072
2018-11-01T13:46:03.859Z,1028
2018-11-01T13:47:13.709Z,1108
2018-11-01T13:48:24.712Z,1496
2018-11-01T13:49:34.379Z,1492
2018-11-01T13:50:44.510Z,1396
2018-11-01T13:51:54.090Z,1172
2018-11-01T13:53:03.945Z,1080
2018-11-01T13:54:14.070Z,1180
2018-11-01T13:55:24.299Z,1108
2018-11-01T13:56:34.657Z,1236
2018-11-01T13:57:44.347Z,1272
2018-11-01T13:58:53.921Z,1280
2018-11-01T14:00:03.781Z,1280
2018-11-01T14:01:13.962Z,1480
2018-11-01T14:02:23.815Z,1840
2018-11-01T14:03:33.948Z,1680
2018-11-01T14:04:43.795Z,1576
2018-11-01T14:05:54.729Z,1548
2018-11-01T14:07:05.042Z,1320
2018-11-01T14:08:14.891Z,1308
2018-11-01T14:09:25.017Z,1640
2018-11-01T14:10:34.870Z,1544
2018-11-01T14:11:44.444Z,1324
2018-11-01T14:12:54.343Z,1220
2018-11-01T14:14:06.416Z,1048
2018-11-01T14:15:19.597Z,792
2018-11-01T14:16:31.048Z,700
2018-11-01T14:17:41.180Z,680
2018-11-01T14:18:51.145Z,708
2018-11-01T14:20:00.724Z,644
2018-11-01T14:21:10.298Z,468
2018-11-01T14:22:20.425Z,468
2018-11-01T14:23:30.542Z,616
2018-11-01T14:24:40.442Z,600
2018-11-01T14:25:50.445Z,664
2018-11-01T14:27:00.113Z,664
2018-11-01T14:28:09.384Z,564
2018-11-01T14:29:18.695Z,464
2018-11-01T14:30:28.871Z,460
2018-11-01T14:31:39.004Z,472
2018-11-01T14:32:49.178Z,504
2018-11-01T14:33:59.024Z,540
2018-11-01T14:35:08.607Z,472
2018-11-01T14:36:17.961Z,384
2018-11-01T14:37:28.287Z,368
2018-11-01T14:38:37.927Z,308
2018-11-01T14:39:48.054Z,248
2018-11-01T14:40:57.630Z,216
2018-11-01T14:42:07.252Z,212
2018-11-01T14:43:17.562Z,196
2018-11-01T14:44:28.099Z,188
2018-11-01T14:45:37.759Z,168
2018-11-01T14:46:47.933Z,152
2018-11-01T14:47:58.115Z,180
2018-11-01T14:49:08.302Z,192
2018-11-01T14:50:18.160Z,168
2018-11-01T14:51:28.075Z,144
2018-11-01T14:52:39.931Z,120
2018-11-01T14:53:52.928Z,124
2018-11-01T14:55:08.608Z,112
2018-11-01T14:56:25.884Z,92
2018-11-01T14:57:46.914Z,80
2018-11-01T14:59:07.497Z,80
2018-11-01T15:00:20.663Z,68
2018-11-01T15:01:31.044Z,64
2018-11-01T15:02:41.218Z,60
2018-11-01T15:03:51.526Z,56
2018-11-01T15:05:01.405Z,48
2018-11-01T15:06:11.286Z,44
2018-11-01T15:07:21.142Z,40
2018-11-01T15:08:30.995Z,44
2018-11-01T15:09:40.359Z,44
2018-11-01T15:10:50.531Z,44
2018-11-01T15:12:00.431Z,44
2018-11-01T15:13:11.080Z,40
2018-11-01T15:14:21.166Z,40
2018-11-01T15:15:31.340Z,40
2018-11-01T15:16:41.215Z,36
2018-11-01T15:17:51.339Z,32
2018-11-01T15:19:01.265Z,28
2018-11-01T15:20:11.173Z,28
2018-11-01T15:21:21.076Z,28
2018-11-01T15:22:30.377Z,32
2018-11-01T15:23:40.507Z,24
2018-11-01T15:24:49.553Z,24
2018-11-01T15:25:59.512Z,24
2018-11-01T15:27:09.259Z,24
2018-11-01T15:28:19.392Z,24
2018-11-01T15:29:29.263Z,24
2018-11-01T15:30:39.138Z,16
2018-11-01T15:31:49.002Z,16
2018-11-01T15:32:59.209Z,12
2018-11-01T15:34:09.831Z,12
2018-11-01T15:35:20.152Z,8
2018-11-01T15:36:30.314Z,8
2018-11-01T15:37:41.307Z,12
2018-11-01T15:38:52.049Z,8
2018-11-01T15:40:02.958Z,8
2018-11-01T15:41:13.069Z,4
2018-11-01T15:42:23.326Z,4
2018-11-01T15:43:33.208Z,0
2018-11-01T15:44:42.847Z,0
2018-11-01T15:45:52.732Z,4
2018-11-01T15:47:02.317Z,4
2018-11-01T15:48:12.378Z,4
2018-11-01T15:49:22.653Z,0
2018-11-01T15:50:32.311Z,0
2018-11-01T15:51:42.188Z,0
2018-11-01T15:52:52.305Z,0
2018-11-01T15:54:02.470Z,0
2018-11-01T15:55:12.068Z,0
2018-11-01T15:56:22.091Z,0
2018-11-01T15:57:32.119Z,0
2018-11-01T15:58:42.944Z,0
2018-11-01T15:59:53.045Z,0
2018-11-01T16:01:03.441Z,0
2018-11-01T16:02:13.923Z,0
2018-11-01T16:03:24.105Z,0
2018-11-01T16:04:34.510Z,0
2018-11-01T16:05:44.108Z,0
2018-11-01T16:06:53.976Z,0
2018-11-01T16:08:03.339Z,0
2018-11-01T16:09:13.491Z,0
2018-11-01T16:10:23.560Z,0
2018-11-01T16:11:33.426Z,0
2018-11-01T16:12:43.318Z,0
2018-11-01T16:13:53.531Z,0
2018-11-01T16:15:03.433Z,0
2018-11-01T16:16:13.309Z,0
2018-11-01T16:17:23.174Z,0
2018-11-01T16:18:33.342Z,0
2018-11-01T16:19:44.754Z,0
2018-11-01T16:20:55.328Z,0
2018-11-01T16:22:05.491Z,0
2018-11-01T16:23:15.789Z,0